Time;durP1;ratioP1;P1;durP2;ratioP2;P2;SDS_P1;SDS_P2;PMS_P1;PMS_P2;Temp;Humidity;BMP_temperature;BMP_pressure;BME280_temperature;BME280_humidity;BME280_pressure;Samples;Min_cycle;Max_cycle;Signal;HPM_P1;HPM_P2
2022/12/27 00:00:22;;;;;;;3.63;1.63;;;;;;;2.37;100.00;101327.31;6028189;28;20391;-75
2022/12/27 00:03:18;;;;;;;6.65;1.52;;;;;;;2.32;100.00;101319.72;6025630;28;20097;-74
2022/12/27 00:06:17;;;;;;;4.53;1.30;;;;;;;2.40;100.00;101328.00;6031405;28;20041;-75
2022/12/27 00:09:12;;;;;;;6.88;1.52;;;;;;;2.31;100.00;101328.47;6026600;28;20031;-74
2022/12/27 00:12:08;;;;;;;5.20;1.80;;;;;;;2.25;100.00;101338.41;6025930;28;20081;-74
2022/12/27 00:15:03;;;;;;;6.50;1.47;;;;;;;2.30;100.00;101332.03;6025272;28;20078;-75
2022/12/27 00:17:59;;;;;;;8.85;1.92;;;;;;;2.23;100.00;101330.63;6026450;28;20352;-73
2022/12/27 00:21:01;;;;;;;3.07;1.57;;;;;;;2.22;100.00;101328.97;6038831;28;20128;-73
2022/12/27 00:23:58;;;;;;;3.67;1.38;;;;;;;2.29;100.00;101348.66;6034973;28;20014;-76
2022/12/27 00:26:53;;;;;;;7.97;1.63;;;;;;;2.26;100.00;101340.09;6033806;28;20036;-74
2022/12/27 00:29:49;;;;;;;3.37;1.20;;;;;;;2.32;100.00;101347.63;6035323;28;20042;-73
2022/12/27 00:32:44;;;;;;;5.27;1.23;;;;;;;2.36;100.00;101352.63;6037362;28;20033;-75
2022/12/27 00:35:39;;;;;;;2.53;0.97;;;;;;;2.36;100.00;101360.47;6037290;28;20030;-73
2022/12/27 00:38:35;;;;;;;6.10;1.27;;;;;;;2.28;100.00;101354.78;6034336;28;20026;-74
2022/12/27 00:41:30;;;;;;;4.37;1.00;;;;;;;2.29;100.00;101359.09;6042178;28;20556;-74
2022/12/27 00:44:25;;;;;;;2.42;1.35;;;;;;;2.37;100.00;101369.19;6041689;28;20297;-74
2022/12/27 00:47:23;;;;;;;2.43;1.20;;;;;;;2.39;100.00;101373.41;6041213;28;20084;-74
2022/12/27 00:50:18;;;;;;;5.20;1.20;;;;;;;2.36;100.00;101363.09;6022568;28;20112;-75
2022/12/27 00:53:14;;;;;;;4.37;1.30;;;;;;;2.30;100.00;101373.91;6034884;28;20041;-75
2022/12/27 00:56:13;;;;;;;4.43;1.10;;;;;;;2.29;99.83;101374.81;6042234;28;20058;-77
2022/12/27 00:59:10;;;;;;;6.07;1.40;;;;;;;2.29;99.81;101385.28;6040925;28;20289;-76
2022/12/27 01:02:05;;;;;;;4.25;1.98;;;;;;;2.28;100.00;101383.56;6040751;28;20053;-74
2022/12/27 01:05:00;;;;;;;7.30;2.00;;;;;;;2.31;100.00;101383.41;6036538;28;20025;-75
2022/12/27 01:07:55;;;;;;;5.80;1.70;;;;;;;2.29;100.00;101384.41;6040003;28;20029;-74
2022/12/27 01:10:51;;;;;;;4.37;1.67;;;;;;;2.26;99.88;101368.88;6039889;28;20062;-76
2022/12/27 01:13:47;;;;;;;6.37;1.97;;;;;;;2.23;99.80;101362.03;6038244;28;20036;-75
2022/12/27 01:16:42;;;;;;;10.70;2.20;;;;;;;2.29;100.00;101374.81;6021370;28;20068;-76
2022/12/27 01:19:38;;;;;;;5.25;1.67;;;;;;;2.30;100.00;101389.59;6038637;28;20030;-76
2022/12/27 01:22:34;;;;;;;7.25;2.17;;;;;;;2.36;99.40;101397.09;6040251;28;20035;-77
2022/12/27 01:25:29;;;;;;;5.93;2.07;;;;;;;2.45;99.30;101400.22;6038111;28;20446;-74
2022/12/27 01:28:24;;;;;;;10.20;2.73;;;;;;;2.51;98.55;101386.78;6037306;28;20035;-76
2022/12/27 01:31:23;;;;;;;8.17;2.73;;;;;;;2.81;98.53;101411.41;6040097;28;20038;-75
2022/12/27 01:34:18;;;;;;;6.13;2.30;;;;;;;2.75;98.59;101402.09;6036079;28;20041;-76
2022/12/27 01:37:14;;;;;;;10.07;3.05;;;;;;;2.93;98.84;101405.53;6038404;28;20030;-74
2022/12/27 01:40:10;;;;;;;9.38;2.40;;;;;;;2.97;97.60;101407.91;6037846;28;20034;-75
2022/12/27 01:43:05;;;;;;;5.80;2.55;;;;;;;2.91;97.17;101402.13;6037211;28;20498;-75
2022/12/27 01:46:01;;;;;;;11.13;2.75;;;;;;;2.85;98.04;101407.72;6042362;28;20088;-74
2022/12/27 01:48:56;;;;;;;14.53;2.80;;;;;;;2.67;97.25;101395.56;6039289;28;20030;-75
2022/12/27 01:51:51;;;;;;;13.77;2.95;;;;;;;2.71;97.44;101404.97;6036739;28;20284;-74
2022/12/27 01:54:47;;;;;;;12.07;2.87;;;;;;;2.72;96.87;101404.00;6037319;28;20100;-73
2022/12/27 01:57:42;;;;;;;7.50;2.83;;;;;;;2.62;97.73;101400.19;6040579;28;20041;-74
2022/12/27 02:00:42;;;;;;;8.32;3.33;;;;;;;2.55;97.72;101393.59;6040342;28;20467;-73
2022/12/27 02:03:40;;;;;;;8.00;2.72;;;;;;;2.50;97.20;101396.41;6034989;28;20034;-74
2022/12/27 02:06:37;;;;;;;10.77;2.67;;;;;;;2.54;97.44;101407.59;6038539;28;20050;-75
2022/12/27 02:09:42;;;;;;;11.20;2.65;;;;;;;2.53;97.77;101421.63;6042229;28;20130;-76
2022/12/27 02:12:38;;;;;;;8.30;2.55;;;;;;;2.57;98.41;101417.91;6018431;28;20061;-75
2022/12/27 02:15:34;;;;;;;7.47;2.07;;;;;;;2.47;97.55;101393.13;6039602;28;20478;-74
2022/12/27 02:18:30;;;;;;;6.97;2.40;;;;;;;2.46;97.66;101404.50;6039603;28;20375;-76
2022/12/27 02:22:00;;;;;;;7.50;2.35;;;;;;;2.53;97.08;101408.53;6040398;28;20104;-73
2022/12/27 02:25:24;;;;;;;9.05;2.25;;;;;;;2.57;97.86;101433.59;6018539;28;20306;-74
2022/12/27 02:28:23;;;;;;;8.70;2.22;;;;;;;2.52;98.19;101426.00;6038210;28;20050;-74
2022/12/27 02:31:23;;;;;;;5.63;2.00;;;;;;;2.53;97.69;101419.00;6042448;28;20021;-73
2022/12/27 02:34:23;;;;;;;8.50;2.20;;;;;;;2.57;98.57;101423.13;6017134;28;20042;-73
2022/12/27 02:37:20;;;;;;;8.60;2.53;;;;;;;2.49;98.14;101410.44;6037388;28;20443;-75
2022/12/27 02:53:31;;;;;;;6.18;1.85;;;;;;;2.38;99.10;101429.31;6029138;28;20057;-75
2022/12/27 02:57:09;;;;;;;8.40;2.20;;;;;;;2.38;99.67;101439.78;6026404;28;20042;-75
2022/12/27 03:03:59;;;;;;;5.30;1.67;;;;;;;2.42;100.00;101445.69;6015378;28;20039;-73
2022/12/27 03:07:11;;;;;;;6.00;1.60;;;;;;;2.38;100.00;101450.25;6028724;28;20077;-75
2022/12/27 03:17:40;;;;;;;9.15;1.98;;;;;;;2.44;100.00;101437.78;6029159;28;20031;-76
2022/12/27 03:27:16;;;;;;;11.68;1.92;;;;;;;2.37;99.60;101427.59;6027605;28;20042;-77
2022/12/27 03:33:26;;;;;;;7.68;1.98;;;;;;;2.39;100.00;101428.38;6028412;28;20039;-75
2022/12/27 03:39:45;;;;;;;6.90;1.77;;;;;;;2.40;99.41;101435.31;6010490;28;20073;-73
2022/12/27 03:43:11;;;;;;;17.83;2.35;;;;;;;2.48;100.00;101452.38;6009869;28;20041;-73
2022/12/27 03:50:05;;;;;;;6.78;1.67;;;;;;;2.46;99.95;101454.22;6011780;28;20038;-75
2022/12/27 03:53:24;;;;;;;6.20;2.10;;;;;;;2.39;100.00;101456.31;6010272;28;20046;-77
2022/12/27 03:56:20;;;;;;;5.70;2.00;;;;;;;2.44;100.00;101453.47;6051514;28;20030;-76
2022/12/27 03:59:15;;;;;;;8.20;2.03;;;;;;;2.39;100.00;101457.16;6051896;28;20034;-76
2022/12/27 04:02:11;;;;;;;7.70;2.33;;;;;;;2.45;100.00;101457.78;6029631;28;20088;-74
2022/12/27 04:05:07;;;;;;;6.40;1.88;;;;;;;2.51;100.00;101452.22;6028323;28;20030;-74
2022/12/27 04:37:14;;;;;;;7.10;2.22;;;;;;;2.80;100.00;101441.97;6056277;28;20463;-73
2022/12/27 04:56:27;;;;;;;6.55;3.45;;;;;;;2.80;100.00;101430.69;6033411;28;20439;-76
2022/12/27 05:02:37;;;;;;;9.18;2.97;;;;;;;3.08;100.00;101454.50;6056035;28;20241;-75
2022/12/27 05:05:33;;;;;;;8.90;3.33;;;;;;;3.20;100.00;101453.88;6054381;28;20054;-75
2022/12/27 05:14:58;;;;;;;7.80;3.30;;;;;;;3.18;99.89;101445.22;6055939;28;20069;-75
2022/12/27 05:17:53;;;;;;;5.70;3.10;;;;;;;3.44;99.17;101465.66;6037368;28;20046;-77
2022/12/27 05:20:48;;;;;;;9.40;3.73;;;;;;;3.56;98.60;101479.91;6032083;28;20031;-75
2022/12/27 05:26:58;;;;;;;13.15;4.20;;;;;;;3.52;97.93;101467.88;6032158;28;20117;-73
2022/12/27 05:29:53;;;;;;;8.80;3.70;;;;;;;3.50;98.19;101448.75;6032377;28;20035;-73
2022/12/27 05:32:48;;;;;;;10.60;3.67;;;;;;;3.45;97.85;101456.84;6031420;28;20110;-76
2022/12/27 05:35:43;;;;;;;9.00;3.73;;;;;;;3.44;97.87;101459.56;6039466;28;20109;-73
2022/12/27 05:38:39;;;;;;;12.07;3.90;;;;;;;3.48;98.06;101469.78;6014645;28;20034;-73
2022/12/27 05:41:34;;;;;;;7.63;3.33;;;;;;;3.33;98.72;101462.75;6032343;28;20030;-75
2022/12/27 05:44:29;;;;;;;7.60;3.53;;;;;;;3.47;99.03;101480.38;6030173;28;20029;-75
2022/12/27 05:47:25;;;;;;;14.43;4.50;;;;;;;3.53;98.51;101475.63;6031346;28;20050;-74
2022/12/27 05:50:20;;;;;;;8.83;3.63;;;;;;;3.54;98.68;101485.19;6047712;28;20030;-74
2022/12/27 05:53:15;;;;;;;12.87;4.20;;;;;;;3.50;98.33;101470.59;6029193;28;20038;-74
2022/12/27 05:56:13;;;;;;;10.77;4.10;;;;;;;3.66;98.76;101496.81;6030318;28;20607;-74
2022/12/27 05:59:09;;;;;;;11.35;4.03;;;;;;;3.65;98.40;101495.09;6043412;28;20041;-75
2022/12/27 06:02:04;;;;;;;8.03;3.13;;;;;;;3.64;97.88;101476.84;6033107;28;20030;-73
2022/12/27 06:04:59;;;;;;;10.03;3.70;;;;;;;3.74;98.11;101467.53;6030057;28;20061;-74
2022/12/27 06:07:55;;;;;;;12.33;3.97;;;;;;;3.76;97.67;101487.50;6031064;28;20092;-73
2022/12/27 06:10:52;;;;;;;13.27;4.20;;;;;;;3.83;97.41;101503.78;6031207;28;20038;-75
2022/12/27 06:13:50;;;;;;;8.10;3.85;;;;;;;3.88;97.53;101491.25;6053079;28;20030;-73
2022/12/27 06:16:45;;;;;;;7.60;3.38;;;;;;;3.87;96.92;101502.66;6047013;28;20497;-75
2022/12/27 06:19:40;;;;;;;7.60;3.53;;;;;;;3.91;97.08;101504.19;6030896;28;20121;-75
2022/12/27 06:22:36;;;;;;;8.13;3.17;;;;;;;3.95;96.47;101517.06;6034190;28;20062;-74
2022/12/27 06:25:31;;;;;;;10.07;3.70;;;;;;;3.92;96.35;101513.75;6055407;28;20038;-74
2022/12/27 06:28:26;;;;;;;7.83;3.70;;;;;;;3.87;97.23;101521.03;6055504;28;20041;-76
2022/12/27 06:31:22;;;;;;;12.27;3.90;;;;;;;3.83;96.95;101507.22;6053585;28;20041;-73
2022/12/27 06:34:17;;;;;;;10.63;3.72;;;;;;;3.83;96.61;101509.03;6042139;28;20535;-76
2022/12/27 06:37:12;;;;;;;11.67;3.73;;;;;;;3.96;95.98;101512.66;6046687;28;20084;-76
2022/12/27 06:40:08;;;;;;;7.80;3.80;;;;;;;4.07;95.96;101536.53;6037056;28;20022;-74
2022/12/27 06:43:04;;;;;;;10.65;4.13;;;;;;;4.03;96.95;101542.88;6051180;28;20049;-75
2022/12/27 06:46:01;;;;;;;8.63;3.90;;;;;;;4.03;97.05;101550.72;6030306;28;20046;-75
2022/12/27 06:48:57;;;;;;;7.93;4.10;;;;;;;3.96;97.25;101545.00;6029137;28;20034;-74
2022/12/27 06:51:52;;;;;;;13.30;4.47;;;;;;;3.92;97.29;101532.97;6031902;28;20030;-72
2022/12/27 06:54:48;;;;;;;6.77;4.23;;;;;;;3.99;97.50;101543.97;6031056;28;20019;-74
2022/12/27 06:57:43;;;;;;;11.30;4.40;;;;;;;3.89;97.56;101535.75;6019601;28;20277;-75
2022/12/27 07:00:39;;;;;;;10.00;3.87;;;;;;;3.97;97.05;101540.56;6026802;28;20034;-76
2022/12/27 07:03:34;;;;;;;10.10;4.03;;;;;;;3.91;97.64;101540.94;6030627;28;20077;-76
2022/12/27 07:06:31;;;;;;;9.87;4.10;;;;;;;4.03;96.84;101559.47;6032452;28;20037;-75
2022/12/27 07:09:26;;;;;;;11.50;4.63;;;;;;;3.95;96.90;101548.53;6027881;28;20270;-75
2022/12/27 07:12:21;;;;;;;14.07;5.03;;;;;;;4.08;96.48;101564.44;6022776;28;20452;-73
2022/12/27 07:15:17;;;;;;;9.70;3.50;;;;;;;4.03;96.48;101574.34;6032403;28;20026;-73
2022/12/27 07:18:12;;;;;;;10.30;4.30;;;;;;;3.94;97.24;101569.63;6031232;28;20117;-75
2022/12/27 07:21:09;;;;;;;11.20;4.63;;;;;;;3.94;96.80;101567.81;6040136;28;20265;-76
2022/12/27 07:24:05;;;;;;;8.05;3.72;;;;;;;4.05;96.43;101591.69;6037708;28;20038;-74
2022/12/27 07:27:01;;;;;;;11.70;4.35;;;;;;;3.97;96.12;101570.28;6039051;28;20121;-75
2022/12/27 07:29:56;;;;;;;6.95;3.40;;;;;;;4.11;96.89;101601.03;6042373;28;20072;-73
2022/12/27 07:32:51;;;;;;;6.80;4.27;;;;;;;4.01;96.59;101592.81;6039573;28;20034;-74
2022/12/27 07:35:46;;;;;;;11.90;4.13;;;;;;;3.99;96.33;101588.59;6030399;28;20396;-77
2022/12/27 07:38:42;;;;;;;8.87;4.57;;;;;;;4.07;96.68;101604.75;6031441;28;20034;-74
2022/12/27 07:41:37;;;;;;;8.73;3.97;;;;;;;3.97;97.66;101601.75;6026431;28;20022;-74
2022/12/27 07:44:33;;;;;;;8.17;4.07;;;;;;;4.05;96.96;101614.50;6025493;28;20046;-74
2022/12/27 07:47:28;;;;;;;13.88;5.07;;;;;;;4.02;97.20;101617.28;6028149;28;20400;-74
2022/12/27 07:50:23;;;;;;;10.00;4.03;;;;;;;4.04;96.99;101612.78;6033031;28;20034;-74
2022/12/27 07:53:19;;;;;;;8.23;4.10;;;;;;;4.10;96.73;101641.34;6033059;28;20037;-74
2022/12/27 07:56:16;;;;;;;9.60;3.67;;;;;;;4.07;96.36;101642.34;6026072;28;20049;-73
2022/12/27 07:59:12;;;;;;;7.35;3.85;;;;;;;4.05;97.22;101651.25;6025524;28;20308;-74
2022/12/27 08:02:09;;;;;;;10.18;3.47;;;;;;;4.08;96.89;101653.66;6023858;28;20038;-74
2022/12/27 08:05:04;;;;;;;10.18;3.70;;;;;;;4.08;96.00;101666.78;6026313;28;20039;-73
2022/12/27 08:08:01;;;;;;;6.65;3.63;;;;;;;4.10;96.21;101664.97;6028501;28;20038;-75
2022/12/27 08:10:56;;;;;;;5.88;2.95;;;;;;;4.14;96.33;101674.34;6033548;28;20031;-76
2022/12/27 08:13:52;;;;;;;5.77;3.27;;;;;;;4.13;96.67;101680.53;6023803;28;20104;-75
2022/12/27 08:16:47;;;;;;;10.00;3.28;;;;;;;4.18;95.95;101689.84;6028356;28;20027;-73
2022/12/27 08:19:43;;;;;;;6.63;3.27;;;;;;;4.18;95.04;101681.16;6028697;28;20119;-74
2022/12/27 08:22:38;;;;;;;7.33;3.00;;;;;;;4.21;95.18;101683.63;6028822;28;20277;-76
2022/12/27 08:25:33;;;;;;;7.67;3.00;;;;;;;4.24;95.04;101683.41;6039309;28;20293;-74
2022/12/27 08:28:30;;;;;;;7.37;2.87;;;;;;;4.27;94.53;101691.13;6029890;28;20079;-74
2022/12/27 08:31:25;;;;;;;8.93;2.90;;;;;;;4.27;95.03;101693.75;6029378;28;20284;-76
2022/12/27 08:34:21;;;;;;;5.10;2.70;;;;;;;4.22;94.75;101685.28;6029495;28;20050;-74
2022/12/27 08:37:16;;;;;;;7.33;3.10;;;;;;;4.25;94.51;101700.88;6012904;28;20030;-76
2022/12/27 08:40:11;;;;;;;4.30;2.53;;;;;;;4.19;95.21;101707.28;6034643;28;20034;-74
2022/12/27 08:43:07;;;;;;;7.50;2.70;;;;;;;4.12;95.09;101695.44;6004245;28;20022;-75
2022/12/27 08:46:04;;;;;;;6.90;2.63;;;;;;;4.04;95.86;101694.13;6032569;28;20085;-75
2022/12/27 08:48:59;;;;;;;10.65;2.80;;;;;;;4.03;96.10;101692.44;6031529;28;20543;-76
2022/12/27 08:51:55;;;;;;;14.80;3.13;;;;;;;4.03;95.84;101692.44;6031643;28;20053;-76
2022/12/27 08:54:50;;;;;;;8.43;3.00;;;;;;;4.09;96.05;101694.75;6033851;28;20048;-74
2022/12/27 08:57:45;;;;;;;12.10;3.87;;;;;;;4.18;95.41;101704.78;6028675;28;20046;-74
2022/12/27 09:00:41;;;;;;;9.20;2.67;;;;;;;4.10;95.60;101696.44;6028853;28;20038;-76
2022/12/27 09:03:36;;;;;;;14.55;2.78;;;;;;;4.20;94.95;101697.66;6033585;28;20468;-74
2022/12/27 09:06:31;;;;;;;7.40;2.65;;;;;;;4.19;94.05;101701.19;6028861;28;20046;-74
2022/12/27 09:09:27;;;;;;;7.53;2.73;;;;;;;4.29;94.17;101709.44;6015157;28;20109;-74
2022/12/27 09:12:22;;;;;;;6.80;2.50;;;;;;;4.37;93.82;101728.25;6029700;28;20284;-73
2022/12/27 09:15:17;;;;;;;6.33;2.73;;;;;;;4.31;93.97;101725.97;6032470;28;20031;-76
2022/12/27 09:18:13;;;;;;;6.43;2.60;;;;;;;4.25;93.64;101721.88;6028463;28;20125;-74
2022/12/27 09:21:10;;;;;;;10.83;3.03;;;;;;;4.38;93.18;101736.03;6028763;28;20281;-77
2022/12/27 09:24:09;;;;;;;9.35;2.70;;;;;;;4.40;93.11;101735.97;6032477;28;20037;-73
2022/12/27 09:27:04;;;;;;;12.02;2.90;;;;;;;4.17;93.73;101724.06;6046553;28;20441;-73
2022/12/27 09:29:59;;;;;;;7.68;2.75;;;;;;;4.32;94.14;101728.50;6029616;28;20037;-75
2022/12/27 09:32:56;;;;;;;9.80;2.70;;;;;;;4.35;93.51;101744.09;6041776;28;20042;-75
2022/12/27 09:35:52;;;;;;;9.80;2.72;;;;;;;4.34;94.26;101745.03;6029299;28;20022;-73
2022/12/27 09:38:47;;;;;;;8.23;2.63;;;;;;;4.38;93.88;101740.44;6029691;28;20045;-77
2022/12/27 09:41:48;;;;;;;9.10;2.50;;;;;;;4.48;93.76;101747.78;6029562;28;20034;-74
2022/12/27 09:44:49;;;;;;;;;;;;;;;4.49;93.68;101752.09;6030916;28;20105;-74
2022/12/27 09:48:03;;;;;;;10.30;3.20;;;;;;;4.52;92.97;101749.28;6028949;28;20314;-75
2022/12/27 09:51:01;;;;;;;;;;;;;;;4.61;93.11;101756.69;6028699;28;20403;-77
2022/12/27 09:54:01;;;;;;;9.10;2.25;;;;;;;4.61;92.70;101735.69;6020262;28;19913;-73
2022/12/27 09:56:58;;;;;;;10.27;2.22;;;;;;;4.50;92.65;101721.41;6014579;28;20117;-73
2022/12/27 09:59:58;;;;;;;8.20;2.70;;;;;;;4.59;92.29;101742.75;6029580;28;20030;-75
2022/12/27 10:02:53;;;;;;;11.23;2.53;;;;;;;4.67;92.76;101761.59;6014608;28;20129;-75
2022/12/27 10:05:53;;;;;;;5.22;2.05;;;;;;;4.79;93.26;101776.69;6033551;28;20070;-76
2022/12/27 10:09:21;;;;;;;5.35;1.92;;;;;;;4.89;92.08;101765.72;6036233;28;20043;-77
2022/12/27 10:12:17;;;;;;;9.52;1.92;;;;;;;4.87;91.44;101775.44;6028356;28;20030;-76
2022/12/27 10:15:28;;;;;;;5.32;1.88;;;;;;;4.94;91.47;101758.41;6030303;28;20057;-79
2022/12/27 10:18:26;;;;;;;5.93;2.05;;;;;;;5.06;91.37;101770.84;6016984;28;20475;-78
2022/12/27 10:21:24;;;;;;;9.90;2.20;;;;;;;5.04;90.76;101756.97;6027366;28;20035;-75
2022/12/27 10:24:23;;;;;;;11.57;2.63;;;;;;;5.20;90.98;101768.31;6027507;28;20038;-76
2022/12/27 10:27:22;;;;;;;6.68;2.25;;;;;;;5.36;89.92;101753.38;6029083;28;20042;-77
2022/12/27 10:30:19;;;;;;;7.07;2.05;;;;;;;5.35;89.56;101776.19;6025341;28;20057;-77
2022/12/27 10:33:19;;;;;;;7.88;2.33;;;;;;;5.23;90.31;101770.78;6028040;28;20126;-76
2022/12/27 10:36:20;;;;;;;5.90;2.00;;;;;;;5.11;90.01;101766.22;6028292;28;20467;-77
2022/12/27 10:39:24;;;;;;;8.43;2.28;;;;;;;5.08;90.55;101766.38;6017341;28;20033;-77
2022/12/27 10:42:40;;;;;;;8.10;2.13;;;;;;;5.11;90.98;101779.38;6026143;28;20062;-77
2022/12/27 10:45:42;;;;;;;5.32;2.10;;;;;;;5.10;90.67;101775.03;6141941;27;20387;-75
2022/12/27 10:48:37;;;;;;;8.53;2.73;;;;;;;5.00;90.59;101752.81;6139222;28;20032;-77
2022/12/27 10:51:35;;;;;;;7.53;2.50;;;;;;;5.27;90.18;101767.88;6145237;28;20031;-76
2022/12/27 10:54:30;;;;;;;5.43;2.00;;;;;;;5.39;89.44;101772.47;6143617;28;20060;-77
2022/12/27 10:57:28;;;;;;;6.22;2.20;;;;;;;5.35;89.06;101770.09;6140049;28;20099;-76
2022/12/27 11:00:24;;;;;;;7.10;2.33;;;;;;;5.28;91.28;101772.22;6140789;28;20032;-78
2022/12/27 11:03:19;;;;;;;5.13;2.25;;;;;;;5.16;92.56;101772.06;6139708;28;20028;-76
2022/12/27 11:06:23;;;;;;;7.37;2.30;;;;;;;5.17;92.63;101777.22;6142553;28;20036;-75
2022/12/27 11:09:37;;;;;;;7.07;2.60;;;;;;;5.18;93.34;101775.44;6142182;28;20279;-75
2022/12/27 11:12:32;;;;;;;7.35;2.28;;;;;;;5.11;93.68;101777.56;6141706;28;20119;-73
2022/12/27 11:15:30;;;;;;;7.77;1.97;;;;;;;5.12;94.56;101781.91;6147510;28;20039;-75
2022/12/27 11:18:26;;;;;;;6.07;2.30;;;;;;;4.96;95.83;101782.81;6151964;28;20033;-76
2022/12/27 11:21:21;;;;;;;5.97;2.60;;;;;;;4.77;97.32;101789.09;6145019;28;20452;-75
2022/12/27 11:24:17;;;;;;;6.32;1.88;;;;;;;4.54;99.83;101786.81;6137664;28;20028;-74
2022/12/27 11:27:27;;;;;;;5.95;2.08;;;;;;;4.15;100.00;101799.41;6140942;28;20047;-73
2022/12/27 11:30:34;;;;;;;5.60;1.88;;;;;;;3.79;100.00;101788.13;6155063;28;20040;-74
2022/12/27 11:33:36;;;;;;;7.75;2.40;;;;;;;3.56;100.00;101779.63;6160529;28;20211;-73
2022/12/27 11:36:40;;;;;;;4.63;1.70;;;;;;;3.60;100.00;101801.31;6138851;28;20074;-74
2022/12/27 11:39:40;;;;;;;4.38;1.70;;;;;;;3.57;100.00;101791.81;6142007;28;20028;-75
2022/12/27 11:42:43;;;;;;;5.57;1.67;;;;;;;3.51;100.00;101775.53;6140890;28;20054;-75
2022/12/27 11:45:41;;;;;;;5.40;2.05;;;;;;;3.53;100.00;101785.00;6139772;28;20463;-75
2022/12/27 11:48:40;;;;;;;5.07;1.98;;;;;;;3.67;100.00;101791.38;6139600;28;20366;-77
2022/12/27 11:51:48;;;;;;;10.70;3.03;;;;;;;3.77;100.00;101785.59;6139878;28;20040;-76
2022/12/27 11:54:47;;;;;;;10.88;2.78;;;;;;;3.98;100.00;101802.03;6135574;28;20024;-76
2022/12/27 11:57:56;;;;;;;11.88;2.47;;;;;;;4.09;100.00;101800.56;6121322;28;20119;-75
2022/12/27 12:01:20;;;;;;;4.88;1.95;;;;;;;4.34;100.00;101804.56;6123626;28;20040;-78
2022/12/27 12:04:44;;;;;;;4.57;1.88;;;;;;;4.37;100.00;101800.00;6116366;28;20497;-76
2022/12/27 12:07:52;;;;;;;6.22;2.65;;;;;;;4.41;100.00;101791.03;6125167;28;20039;-76
2022/12/27 12:10:55;;;;;;;11.07;3.70;;;;;;;4.35;100.00;101790.50;6124150;28;20037;-77
2022/12/27 12:14:09;;;;;;;6.65;2.40;;;;;;;4.39;100.00;101800.78;6124391;28;20040;-76
2022/12/27 12:17:15;;;;;;;;;;;;;;;4.54;100.00;101812.25;6113726;28;20415;-77
2022/12/27 12:20:38;;;;;;;5.50;2.03;;;;;;;4.71;100.00;101799.91;6122889;28;19959;-76
2022/12/27 12:24:11;;;;;;;7.30;2.38;;;;;;;4.79;100.00;101818.75;6121989;28;20039;-77
2022/12/27 12:27:09;;;;;;;8.85;2.42;;;;;;;4.91;100.00;101808.50;6123254;28;20506;-74
2022/12/27 12:30:46;;;;;;;6.28;2.83;;;;;;;5.02;99.22;101816.66;6119366;28;20637;-78
2022/12/27 12:34:07;;;;;;;5.70;2.35;;;;;;;5.14;98.38;101818.59;6116560;28;20048;-76
2022/12/27 12:37:11;;;;;;;7.35;2.50;;;;;;;5.13;98.05;101811.66;6119538;28;20051;-75
2022/12/27 12:40:28;;;;;;;8.75;2.80;;;;;;;5.17;97.48;101808.78;6119725;28;20043;-75
2022/12/27 12:43:35;;;;;;;10.07;2.70;;;;;;;5.17;96.99;101808.78;6119731;28;20125;-76
2022/12/27 12:46:59;;;;;;;12.32;2.30;;;;;;;5.22;96.06;101805.88;6123291;28;20047;-76
2022/12/27 12:50:16;;;;;;;8.60;2.10;;;;;;;5.23;94.17;101813.69;6114763;28;20471;-76
2022/12/27 12:53:30;;;;;;;16.67;2.60;;;;;;;5.21;93.52;101804.22;6123201;28;20117;-76
2022/12/27 12:56:50;;;;;;;7.82;2.60;;;;;;;5.35;93.47;101815.63;6123638;28;20036;-75
2022/12/27 12:59:52;;;;;;;6.50;2.33;;;;;;;5.42;92.93;101813.53;6123664;28;20463;-76
2022/12/27 13:03:10;;;;;;;5.10;2.47;;;;;;;5.48;91.12;101815.81;6120902;28;20107;-76
2022/12/27 13:06:26;;;;;;;4.85;2.35;;;;;;;5.54;90.14;101817.25;6134043;28;20037;-76
2022/12/27 13:09:55;;;;;;;4.60;2.03;;;;;;;5.33;89.74;101793.00;6115709;28;20532;-74
2022/12/27 13:13:01;;;;;;;6.95;1.85;;;;;;;5.22;89.39;101787.47;6122455;28;20414;-76
2022/12/27 13:16:11;;;;;;;8.32;2.33;;;;;;;5.25;90.48;101808.34;6114588;28;21359;-76
2022/12/27 13:19:31;;;;;;;4.50;2.10;;;;;;;5.21;91.26;101805.06;6122106;28;20032;-77
2022/12/27 13:22:47;;;;;;;10.27;2.55;;;;;;;5.14;91.20;101802.81;6122445;28;20039;-76
2022/12/27 13:25:57;;;;;;;8.05;2.63;;;;;;;5.08;91.21;101787.41;6121702;28;20024;-75
2022/12/27 13:29:07;;;;;;;4.97;2.40;;;;;;;5.10;91.67;101806.56;6116815;28;20395;-77
2022/12/27 13:32:43;;;;;;;10.52;3.92;;;;;;;5.13;91.55;101801.16;6121571;28;20045;-76
2022/12/27 13:36:16;;;;;;;9.93;3.45;;;;;;;5.17;91.93;101800.03;6122506;28;20116;-77
2022/12/27 13:39:46;;;;;;;11.68;3.70;;;;;;;5.17;92.29;101789.50;6109660;28;20039;-77
2022/12/27 13:43:18;;;;;;;8.90;3.30;;;;;;;5.25;92.81;101795.19;6118205;28;20472;-79
2022/12/27 13:46:41;;;;;;;10.88;3.40;;;;;;;5.21;91.11;101788.44;6122925;28;20052;-76
2022/12/27 13:49:43;;;;;;;7.07;2.90;;;;;;;5.15;90.44;101783.50;6121917;28;20082;-77
2022/12/27 13:53:17;;;;;;;7.55;3.45;;;;;;;5.26;91.09;101796.91;6122302;28;20479;-77
2022/12/27 13:56:40;;;;;;;12.90;4.05;;;;;;;5.20;91.05;101797.25;6110548;28;20048;-77
2022/12/27 14:00:03;;;;;;;11.15;3.97;;;;;;;5.15;90.46;101799.28;6122761;28;20455;-79
2022/12/27 14:03:29;;;;;;;5.70;3.28;;;;;;;5.14;90.24;101803.69;6109103;28;20491;-76
2022/12/27 14:06:39;;;;;;;8.60;3.67;;;;;;;5.17;89.52;101794.78;6122449;28;20447;-76
2022/12/27 14:09:43;;;;;;;10.30;4.00;;;;;;;5.14;89.98;101789.69;6121927;28;20033;-76
2022/12/27 14:12:54;;;;;;;7.22;3.25;;;;;;;5.13;89.74;101802.00;6121427;28;20068;-77
2022/12/27 14:16:14;;;;;;;10.02;3.80;;;;;;;5.13;90.43;101801.16;6113985;28;20460;-77
2022/12/27 14:19:12;;;;;;;9.20;3.78;;;;;;;5.15;89.95;101792.25;6115401;28;20480;-75
2022/12/27 14:22:19;;;;;;;26.63;8.48;;;;;;;5.05;89.98;101792.84;6121428;28;20036;-78
2022/12/27 14:25:53;;;;;;;13.50;3.53;;;;;;;5.05;90.68;101788.44;6121211;28;20165;-75
2022/12/27 14:29:06;;;;;;;7.40;3.42;;;;;;;5.07;89.91;101783.94;6121719;28;20077;-75
2022/12/27 14:32:23;;;;;;;9.15;3.95;;;;;;;5.01;90.56;101780.78;6121314;28;20062;-75
2022/12/27 14:35:50;;;;;;;13.25;4.75;;;;;;;4.98;89.28;101786.22;6120372;28;20028;-77
2022/12/27 14:38:48;;;;;;;13.23;4.25;;;;;;;4.76;90.45;101786.53;6122624;28;20523;-75
2022/12/27 14:41:58;;;;;;;8.00;4.43;;;;;;;4.57;91.63;101776.16;6121166;28;20033;-77
2022/12/27 14:45:13;;;;;;;10.43;4.35;;;;;;;4.45;91.79;101776.81;6143459;28;20479;-74
2022/12/27 14:48:31;;;;;;;9.65;4.15;;;;;;;4.41;91.69;101779.66;6122498;28;20048;-77
2022/12/27 14:52:04;;;;;;;8.90;4.25;;;;;;;4.28;92.81;101784.72;6118402;28;20522;-77
2022/12/27 14:55:02;;;;;;;12.68;4.35;;;;;;;4.16;93.54;101791.44;6121101;28;20036;-77
2022/12/27 14:58:10;;;;;;;9.13;4.45;;;;;;;4.08;93.48;101788.38;6122521;28;20103;-75
2022/12/27 15:01:20;;;;;;;9.10;4.78;;;;;;;3.98;93.95;101781.91;6119071;28;20577;-80
2022/12/27 15:04:37;;;;;;;9.75;4.80;;;;;;;3.95;94.15;101791.69;6121124;28;20044;-77
2022/12/27 15:08:03;;;;;;;16.40;5.53;;;;;;;3.88;95.03;101792.94;6121603;28;20048;-77
2022/12/27 15:11:17;;;;;;;13.93;5.20;;;;;;;3.84;95.09;101788.75;6122133;28;20492;-76
2022/12/27 15:14:22;;;;;;;13.50;5.00;;;;;;;3.80;95.85;101793.31;6119277;28;20043;-77
2022/12/27 15:17:36;;;;;;;11.45;5.60;;;;;;;3.80;95.63;101789.84;6120719;28;20079;-75
2022/12/27 15:20:51;;;;;;;12.30;5.13;;;;;;;3.70;96.27;101785.97;6113075;28;20402;-76
2022/12/27 15:23:53;;;;;;;11.70;5.05;;;;;;;3.56;96.91;101763.91;6120358;28;20475;-77
2022/12/27 15:26:59;;;;;;;12.85;5.95;;;;;;;3.56;96.90;101781.44;6122475;28;20082;-79
2022/12/27 15:30:03;;;;;;;11.20;5.93;;;;;;;3.52;98.04;101772.00;6122060;28;20064;-78
2022/12/27 15:33:12;;;;;;;13.32;6.80;;;;;;;3.47;98.26;101785.34;6124397;28;20040;-77
2022/12/27 15:36:13;;;;;;;14.05;6.03;;;;;;;3.39;98.46;101750.78;6125800;28;20043;-79
2022/12/27 15:39:33;;;;;;;17.95;6.20;;;;;;;3.49;98.47;101767.75;6124557;28;20047;-77
2022/12/27 15:42:48;;;;;;;15.20;6.10;;;;;;;3.39;99.04;101745.53;6126462;28;20036;-77
2022/12/27 15:46:04;;;;;;;13.23;6.65;;;;;;;3.48;99.15;101768.66;6124554;28;20033;-77
2022/12/27 15:49:27;;;;;;;14.20;6.00;;;;;;;3.41;99.50;101754.16;6124715;28;20016;-77
2022/12/27 15:52:43;;;;;;;14.77;5.63;;;;;;;3.34;99.83;101768.47;6123716;28;20113;-78